Kakariki — ZMKA — position and weather

sailwx.info

Track history (hours):
 
Tides and Currents Weather Stations Pressure Air Temp Water Temp Dewpoint Dewpoint Depression Visibility Wind Speed Wind Dir Waves Ship Positions

Kakariki

Last reported at 2017-May-23 07:30 UTC. Time now 2017-May-26 03:34 UTC.
Position S 36°05' E 175°46'.

Length 183 m; beam 32 m; draft 11 m.

Type: Ship (hazmat cat A). MMSI: 512000050.

Date/timePositionNaut miles runAvg speedWind from/ knotsBaromVisibWave heightAir tempDewpointWater temp
2017-May-23 07:30S 36°05' E 175°46'612.2
2017-May-23 07:00S 36°01' E 175°40'1312.2
2017-May-23 05:56S 35°54' E 175°26'  
2017-May-20 14:11S 35°53' E 175°24'1211.2
2017-May-20 13:07S 36°01' E 175°35'1211.7
2017-May-20 12:07S 36°10' E 175°44'8310.6
2017-May-20 04:18S 37°30' E 176°11'10 0.2
2017-May-18 00:36S 37°40' E 176°11'0 0.0
2017-May-18 00:31S 37°40' E 176°11'1 2.9
2017-May-18 00:01S 37°38' E 176°10'4 7.2
2017-May-17 23:31S 37°35' E 176°12'2 3.8
2017-May-17 23:01S 37°34' E 176°14'1 1.2
2017-May-17 22:30S 37°34' E 176°13'1 1.3
2017-May-17 22:01S 37°33' E 176°13'1 1.3
2017-May-17 21:31S 37°32' E 176°12'1 1.3
2017-May-17 21:00S 37°32' E 176°12'8510.9
2017-May-17 13:15S 36°10' E 175°44'411.6
2017-May-17 12:56S 36°08' E 175°41'511.7
2017-May-17 12:30S 36°04' E 175°37'711.6
2017-May-17 11:54S 35°58' E 175°32'611.6
2017-May-17 11:22S 35°54' E 175°26'  
Track history (hours):
 
Tides and Currents Weather Stations Pressure Air Temp Water Temp Dewpoint Dewpoint Depression Visibility Wind Speed Wind Dir Waves Ship Positions

Kakariki

Last reported at 2017-May-23 07:30 UTC. Time now 2017-May-26 03:34 UTC.
Position S 36°05' E 175°46'.

Length 183 m; beam 32 m; draft 11 m.

Type: Ship (hazmat cat A). MMSI: 512000050.

Date/timePositionNaut miles runAvg speedWind from/ knotsBaromVisibWave heightAir tempDewpointWater temp
2017-May-23 07:30S 36°05' E 175°46'612.2
2017-May-23 07:00S 36°01' E 175°40'1312.2
2017-May-23 05:56S 35°54' E 175°26'  
2017-May-20 14:11S 35°53' E 175°24'1211.2
2017-May-20 13:07S 36°01' E 175°35'1211.7
2017-May-20 12:07S 36°10' E 175°44'8310.6
2017-May-20 04:18S 37°30' E 176°11'10 0.2
2017-May-18 00:36S 37°40' E 176°11'0 0.0
2017-May-18 00:31S 37°40' E 176°11'1 2.9
2017-May-18 00:01S 37°38' E 176°10'4 7.2
2017-May-17 23:31S 37°35' E 176°12'2 3.8
2017-May-17 23:01S 37°34' E 176°14'1 1.2
2017-May-17 22:30S 37°34' E 176°13'1 1.3
2017-May-17 22:01S 37°33' E 176°13'1 1.3
2017-May-17 21:31S 37°32' E 176°12'1 1.3
2017-May-17 21:00S 37°32' E 176°12'8510.9
2017-May-17 13:15S 36°10' E 175°44'411.6
2017-May-17 12:56S 36°08' E 175°41'511.7
2017-May-17 12:30S 36°04' E 175°37'711.6
2017-May-17 11:54S 35°58' E 175°32'611.6
2017-May-17 11:22S 35°54' E 175°26'  

Dump ship's entire track history